sensor_id;sensor_type;location;lat;lon;timestamp;temperature;humidity
18502;DHT22;68437;52.236;5.710;2023-03-23T00:00:00;10.80;99.90
18502;DHT22;68437;52.236;5.710;2023-03-23T00:02:31;10.90;99.90
18502;DHT22;68437;52.236;5.710;2023-03-23T00:05:01;10.80;99.90
18502;DHT22;68437;52.236;5.710;2023-03-23T00:07:29;10.90;99.90
18502;DHT22;68437;52.236;5.710;2023-03-23T00:09:58;10.80;99.90
18502;DHT22;68437;52.236;5.710;2023-03-23T00:12:28;10.80;99.90
18502;DHT22;68437;52.236;5.710;2023-03-23T00:15:03;10.80;99.90
18502;DHT22;68437;52.236;5.710;2023-03-23T00:17:32;10.80;99.90
18502;DHT22;68437;52.236;5.710;2023-03-23T00:20:03;10.80;99.90
18502;DHT22;68437;52.236;5.710;2023-03-23T00:22:32;10.80;99.90
18502;DHT22;68437;52.236;5.710;2023-03-23T00:25:03;10.80;99.90
18502;DHT22;68437;52.236;5.710;2023-03-23T00:27:32;10.80;99.90
18502;DHT22;68437;52.236;5.710;2023-03-23T00:29:59;10.80;99.90
18502;DHT22;68437;52.236;5.710;2023-03-23T00:32:26;10.80;99.90
18502;DHT22;68437;52.236;5.710;2023-03-23T00:34:59;10.80;99.90
18502;DHT22;68437;52.236;5.710;2023-03-23T00:37:26;11.00;99.90
18502;DHT22;68437;52.236;5.710;2023-03-23T00:39:53;10.80;99.90
18502;DHT22;68437;52.236;5.710;2023-03-23T00:42:23;10.80;99.90
18502;DHT22;68437;52.236;5.710;2023-03-23T00:44:50;10.80;99.90
18502;DHT22;68437;52.236;5.710;2023-03-23T00:47:19;10.80;99.90
18502;DHT22;68437;52.236;5.710;2023-03-23T00:49:46;10.80;99.90
18502;DHT22;68437;52.236;5.710;2023-03-23T00:52:14;10.80;99.90
18502;DHT22;68437;52.236;5.710;2023-03-23T00:54:41;10.90;99.90
18502;DHT22;68437;52.236;5.710;2023-03-23T00:57:08;10.90;99.90
18502;DHT22;68437;52.236;5.710;2023-03-23T00:59:35;10.90;99.90
18502;DHT22;68437;52.236;5.710;2023-03-23T01:02:04;10.90;99.90
18502;DHT22;68437;52.236;5.710;2023-03-23T01:04:31;10.90;99.90
18502;DHT22;68437;52.236;5.710;2023-03-23T01:06:58;10.90;99.90
18502;DHT22;68437;52.236;5.710;2023-03-23T01:09:27;10.90;99.90
18502;DHT22;68437;52.236;5.710;2023-03-23T01:11:54;10.90;99.90
18502;DHT22;68437;52.236;5.710;2023-03-23T01:14:22;10.90;99.90
18502;DHT22;68437;52.236;5.710;2023-03-23T01:16:49;10.90;99.90
18502;DHT22;68437;52.236;5.710;2023-03-23T01:19:15;10.90;99.90
18502;DHT22;68437;52.236;5.710;2023-03-23T01:21:42;10.80;99.90
18502;DHT22;68437;52.236;5.710;2023-03-23T01:24:09;10.90;99.90
18502;DHT22;68437;52.236;5.710;2023-03-23T01:26:37;10.90;99.90
18502;DHT22;68437;52.236;5.710;2023-03-23T01:29:04;10.90;99.90
18502;DHT22;68437;52.236;5.710;2023-03-23T01:31:31;11.00;99.90
18502;DHT22;68437;52.236;5.710;2023-03-23T01:33:58;11.00;99.90
18502;DHT22;68437;52.236;5.710;2023-03-23T01:36:26;11.00;99.90
18502;DHT22;68437;52.236;5.710;2023-03-23T01:38:54;11.00;99.90
18502;DHT22;68437;52.236;5.710;2023-03-23T01:41:23;11.00;99.90
18502;DHT22;68437;52.236;5.710;2023-03-23T01:43:56;11.00;99.90
18502;DHT22;68437;52.236;5.710;2023-03-23T01:46:25;11.00;99.90
18502;DHT22;68437;52.236;5.710;2023-03-23T01:48:54;11.00;99.90
18502;DHT22;68437;52.236;5.710;2023-03-23T01:51:22;11.00;99.90
18502;DHT22;68437;52.236;5.710;2023-03-23T01:53:52;11.00;99.90
18502;DHT22;68437;52.236;5.710;2023-03-23T01:56:24;11.00;99.90
18502;DHT22;68437;52.236;5.710;2023-03-23T01:58:52;11.00;99.90
18502;DHT22;68437;52.236;5.710;2023-03-23T02:01:22;11.00;99.90
18502;DHT22;68437;52.236;5.710;2023-03-23T02:03:52;11.10;99.90
18502;DHT22;68437;52.236;5.710;2023-03-23T02:06:20;11.00;99.90
18502;DHT22;68437;52.236;5.710;2023-03-23T02:08:49;11.00;99.90
18502;DHT22;68437;52.236;5.710;2023-03-23T02:11:17;11.00;99.90
18502;DHT22;68437;52.236;5.710;2023-03-23T02:13:45;11.00;99.90
18502;DHT22;68437;52.236;5.710;2023-03-23T02:16:19;11.00;99.90
18502;DHT22;68437;52.236;5.710;2023-03-23T02:18:57;11.00;99.90
18502;DHT22;68437;52.236;5.710;2023-03-23T02:24:51;11.10;99.90
18502;DHT22;68437;52.236;5.710;2023-03-23T02:27:32;11.00;99.90
18502;DHT22;68437;52.236;5.710;2023-03-23T02:30:15;11.00;99.90
18502;DHT22;68437;52.236;5.710;2023-03-23T02:33:17;11.00;99.90
18502;DHT22;68437;52.236;5.710;2023-03-23T02:35:49;11.10;99.90
18502;DHT22;68437;52.236;5.710;2023-03-23T02:38:20;11.00;99.90
18502;DHT22;68437;52.236;5.710;2023-03-23T02:40:49;11.10;99.90
18502;DHT22;68437;52.236;5.710;2023-03-23T02:43:20;11.00;99.90
18502;DHT22;68437;52.236;5.710;2023-03-23T02:45:50;11.10;99.90
18502;DHT22;68437;52.236;5.710;2023-03-23T02:48:22;11.10;99.90
18502;DHT22;68437;52.236;5.710;2023-03-23T02:50:52;11.10;99.90
18502;DHT22;68437;52.236;5.710;2023-03-23T02:53:21;11.10;99.90
18502;DHT22;68437;52.236;5.710;2023-03-23T02:55:50;11.20;99.90
18502;DHT22;68437;52.236;5.710;2023-03-23T02:58:20;11.10;99.90
18502;DHT22;68437;52.236;5.710;2023-03-23T03:00:49;11.20;99.90
18502;DHT22;68437;52.236;5.710;2023-03-23T03:03:19;11.20;99.90
18502;DHT22;68437;52.236;5.710;2023-03-23T03:05:53;11.20;99.90
18502;DHT22;68437;52.236;5.710;2023-03-23T03:08:32;11.20;99.90
18502;DHT22;68437;52.236;5.710;2023-03-23T03:11:04;11.20;99.90
18502;DHT22;68437;52.236;5.710;2023-03-23T03:13:39;11.20;99.90
18502;DHT22;68437;52.236;5.710;2023-03-23T03:16:19;11.20;99.90
18502;DHT22;68437;52.236;5.710;2023-03-23T03:18:54;11.20;99.90
18502;DHT22;68437;52.236;5.710;2023-03-23T03:21:25;11.30;99.90
18502;DHT22;68437;52.236;5.710;2023-03-23T03:23:54;11.30;99.90
18502;DHT22;68437;52.236;5.710;2023-03-23T03:26:25;11.20;99.90
18502;DHT22;68437;52.236;5.710;2023-03-23T03:28:53;11.20;99.90
18502;DHT22;68437;52.236;5.710;2023-03-23T03:31:23;11.30;99.90
18502;DHT22;68437;52.236;5.710;2023-03-23T03:33:54;11.30;99.90
18502;DHT22;68437;52.236;5.710;2023-03-23T03:36:24;11.30;99.90
18502;DHT22;68437;52.236;5.710;2023-03-23T03:38:52;11.30;99.90
18502;DHT22;68437;52.236;5.710;2023-03-23T03:41:22;11.30;99.90
18502;DHT22;68437;52.236;5.710;2023-03-23T03:43:49;11.40;99.90
18502;DHT22;68437;52.236;5.710;2023-03-23T03:46:16;11.40;99.90
18502;DHT22;68437;52.236;5.710;2023-03-23T03:48:43;11.40;99.90
18502;DHT22;68437;52.236;5.710;2023-03-23T03:51:11;11.40;99.90
18502;DHT22;68437;52.236;5.710;2023-03-23T03:53:38;11.40;99.90
18502;DHT22;68437;52.236;5.710;2023-03-23T03:56:06;11.40;99.90
18502;DHT22;68437;52.236;5.710;2023-03-23T03:58:33;11.40;99.90
18502;DHT22;68437;52.236;5.710;2023-03-23T04:01:01;11.50;99.90
18502;DHT22;68437;52.236;5.710;2023-03-23T04:03:28;11.50;99.90
18502;DHT22;68437;52.236;5.710;2023-03-23T04:05:55;11.40;99.90
18502;DHT22;68437;52.236;5.710;2023-03-23T04:08:29;11.10;99.90
18502;DHT22;68437;52.236;5.710;2023-03-23T04:10:55;11.60;99.90
18502;DHT22;68437;52.236;5.710;2023-03-23T04:13:23;11.60;99.90
18502;DHT22;68437;52.236;5.710;2023-03-23T04:15:50;11.60;99.90
18502;DHT22;68437;52.236;5.710;2023-03-23T04:18:17;11.60;99.90
18502;DHT22;68437;52.236;5.710;2023-03-23T04:20:47;11.60;99.90
18502;DHT22;68437;52.236;5.710;2023-03-23T04:23:14;11.60;99.90
18502;DHT22;68437;52.236;5.710;2023-03-23T04:25:46;11.60;99.90
18502;DHT22;68437;52.236;5.710;2023-03-23T04:28:13;11.60;99.90
18502;DHT22;68437;52.236;5.710;2023-03-23T04:30:42;11.60;99.90
18502;DHT22;68437;52.236;5.710;2023-03-23T04:33:12;11.60;99.90
18502;DHT22;68437;52.236;5.710;2023-03-23T04:35:39;11.60;99.90
18502;DHT22;68437;52.236;5.710;2023-03-23T04:38:06;11.60;99.90
18502;DHT22;68437;52.236;5.710;2023-03-23T04:40:36;11.60;99.90
18502;DHT22;68437;52.236;5.710;2023-03-23T04:43:04;11.70;99.90
18502;DHT22;68437;52.236;5.710;2023-03-23T04:45:33;11.60;99.90
18502;DHT22;68437;52.236;5.710;2023-03-23T04:48:03;11.70;99.90
18502;DHT22;68437;52.236;5.710;2023-03-23T04:50:31;11.60;99.90
18502;DHT22;68437;52.236;5.710;2023-03-23T04:52:59;11.80;99.90
18502;DHT22;68437;52.236;5.710;2023-03-23T04:55:30;11.70;99.90
18502;DHT22;68437;52.236;5.710;2023-03-23T04:57:57;11.80;99.90
18502;DHT22;68437;52.236;5.710;2023-03-23T05:00:27;11.80;99.90
18502;DHT22;68437;52.236;5.710;2023-03-23T05:02:54;11.90;99.90
18502;DHT22;68437;52.236;5.710;2023-03-23T05:05:21;11.80;99.90
18502;DHT22;68437;52.236;5.710;2023-03-23T05:07:50;11.90;99.90
18502;DHT22;68437;52.236;5.710;2023-03-23T05:10:17;11.90;99.90
18502;DHT22;68437;52.236;5.710;2023-03-23T05:12:44;11.90;99.90
18502;DHT22;68437;52.236;5.710;2023-03-23T05:15:13;11.80;99.90
18502;DHT22;68437;52.236;5.710;2023-03-23T05:17:42;11.80;99.90
18502;DHT22;68437;52.236;5.710;2023-03-23T05:20:12;11.80;99.90
18502;DHT22;68437;52.236;5.710;2023-03-23T05:22:42;11.90;99.90
18502;DHT22;68437;52.236;5.710;2023-03-23T05:25:10;11.90;99.90
18502;DHT22;68437;52.236;5.710;2023-03-23T05:27:37;11.90;99.90
18502;DHT22;68437;52.236;5.710;2023-03-23T05:30:08;11.90;99.90
18502;DHT22;68437;52.236;5.710;2023-03-23T05:32:36;11.90;99.90
18502;DHT22;68437;52.236;5.710;2023-03-23T05:35:04;11.90;99.90
18502;DHT22;68437;52.236;5.710;2023-03-23T05:37:31;11.90;99.90
18502;DHT22;68437;52.236;5.710;2023-03-23T05:39:59;11.90;99.90
18502;DHT22;68437;52.236;5.710;2023-03-23T05:42:30;11.80;99.90
18502;DHT22;68437;52.236;5.710;2023-03-23T05:44:57;11.60;99.90
18502;DHT22;68437;52.236;5.710;2023-03-23T05:47:26;11.40;99.90
18502;DHT22;68437;52.236;5.710;2023-03-23T05:49:53;11.10;99.90
18502;DHT22;68437;52.236;5.710;2023-03-23T05:52:21;11.00;99.90
18502;DHT22;68437;52.236;5.710;2023-03-23T05:54:49;10.80;99.90
18502;DHT22;68437;52.236;5.710;2023-03-23T05:57:16;10.70;99.90
18502;DHT22;68437;52.236;5.710;2023-03-23T05:59:43;10.60;99.90
18502;DHT22;68437;52.236;5.710;2023-03-23T06:02:11;10.40;99.90
18502;DHT22;68437;52.236;5.710;2023-03-23T06:04:39;10.30;99.90
18502;DHT22;68437;52.236;5.710;2023-03-23T06:07:06;10.20;99.90
18502;DHT22;68437;52.236;5.710;2023-03-23T06:09:39;10.20;99.90
18502;DHT22;68437;52.236;5.710;2023-03-23T06:12:07;10.20;99.90
18502;DHT22;68437;52.236;5.710;2023-03-23T06:14:34;10.20;99.90
18502;DHT22;68437;52.236;5.710;2023-03-23T06:17:01;10.20;99.90
18502;DHT22;68437;52.236;5.710;2023-03-23T06:19:28;10.30;99.90
18502;DHT22;68437;52.236;5.710;2023-03-23T06:21:55;10.20;99.90
18502;DHT22;68437;52.236;5.710;2023-03-23T06:24:22;10.20;99.90
18502;DHT22;68437;52.236;5.710;2023-03-23T06:26:50;10.20;99.90
18502;DHT22;68437;52.236;5.710;2023-03-23T06:29:17;10.20;99.90
18502;DHT22;68437;52.236;5.710;2023-03-23T06:31:47;10.30;99.90
18502;DHT22;68437;52.236;5.710;2023-03-23T06:34:14;10.30;99.90
18502;DHT22;68437;52.236;5.710;2023-03-23T06:36:42;10.30;99.90
18502;DHT22;68437;52.236;5.710;2023-03-23T06:39:10;10.30;99.90
18502;DHT22;68437;52.236;5.710;2023-03-23T06:41:40;10.30;99.90
18502;DHT22;68437;52.236;5.710;2023-03-23T06:44:08;10.40;99.90
18502;DHT22;68437;52.236;5.710;2023-03-23T06:46:38;10.30;99.90
18502;DHT22;68437;52.236;5.710;2023-03-23T06:49:05;10.30;99.90
18502;DHT22;68437;52.236;5.710;2023-03-23T06:51:32;10.20;99.90
18502;DHT22;68437;52.236;5.710;2023-03-23T06:53:59;10.20;99.90
18502;DHT22;68437;52.236;5.710;2023-03-23T06:56:26;10.20;99.90
18502;DHT22;68437;52.236;5.710;2023-03-23T06:58:53;10.20;99.90
18502;DHT22;68437;52.236;5.710;2023-03-23T07:01:21;10.20;99.90
18502;DHT22;68437;52.236;5.710;2023-03-23T07:03:53;10.10;99.90
18502;DHT22;68437;52.236;5.710;2023-03-23T07:06:21;10.20;99.90
18502;DHT22;68437;52.236;5.710;2023-03-23T07:08:48;10.20;99.90
18502;DHT22;68437;52.236;5.710;2023-03-23T07:11:15;10.20;99.90
18502;DHT22;68437;52.236;5.710;2023-03-23T07:13:42;10.20;99.90
18502;DHT22;68437;52.236;5.710;2023-03-23T07:16:09;10.20;99.90
18502;DHT22;68437;52.236;5.710;2023-03-23T07:18:37;10.20;99.90
18502;DHT22;68437;52.236;5.710;2023-03-23T07:21:05;10.20;99.90
18502;DHT22;68437;52.236;5.710;2023-03-23T07:23:32;10.30;99.90
18502;DHT22;68437;52.236;5.710;2023-03-23T07:25:59;10.30;99.90
18502;DHT22;68437;52.236;5.710;2023-03-23T07:28:26;10.30;99.90
18502;DHT22;68437;52.236;5.710;2023-03-23T07:30:52;10.30;99.90
18502;DHT22;68437;52.236;5.710;2023-03-23T07:33:19;10.30;99.90
18502;DHT22;68437;52.236;5.710;2023-03-23T07:35:48;10.30;99.90
18502;DHT22;68437;52.236;5.710;2023-03-23T07:38:15;10.30;99.90
18502;DHT22;68437;52.236;5.710;2023-03-23T07:40:43;10.40;99.90
18502;DHT22;68437;52.236;5.710;2023-03-23T07:43:10;10.40;99.90
18502;DHT22;68437;52.236;5.710;2023-03-23T07:45:36;10.40;99.90
18502;DHT22;68437;52.236;5.710;2023-03-23T07:48:03;10.50;99.90
18502;DHT22;68437;52.236;5.710;2023-03-23T07:50:30;10.60;99.90
18502;DHT22;68437;52.236;5.710;2023-03-23T07:52:59;10.60;99.90
18502;DHT22;68437;52.236;5.710;2023-03-23T07:55:26;10.60;99.90
18502;DHT22;68437;52.236;5.710;2023-03-23T07:57:54;10.70;99.90
18502;DHT22;68437;52.236;5.710;2023-03-23T08:00:23;10.70;99.90
18502;DHT22;68437;52.236;5.710;2023-03-23T08:02:51;10.70;99.90
18502;DHT22;68437;52.236;5.710;2023-03-23T08:05:19;10.80;99.90
18502;DHT22;68437;52.236;5.710;2023-03-23T08:07:48;10.80;99.90
18502;DHT22;68437;52.236;5.710;2023-03-23T08:10:21;10.90;99.90
18502;DHT22;68437;52.236;5.710;2023-03-23T08:12:53;11.00;99.90
18502;DHT22;68437;52.236;5.710;2023-03-23T08:15:20;11.00;99.90
18502;DHT22;68437;52.236;5.710;2023-03-23T08:17:48;10.90;99.90
18502;DHT22;68437;52.236;5.710;2023-03-23T08:20:16;11.00;99.90
18502;DHT22;68437;52.236;5.710;2023-03-23T08:22:48;10.90;99.90
18502;DHT22;68437;52.236;5.710;2023-03-23T08:25:16;10.90;99.90
18502;DHT22;68437;52.236;5.710;2023-03-23T08:27:45;10.90;99.90
18502;DHT22;68437;52.236;5.710;2023-03-23T08:30:13;10.80;99.90
18502;DHT22;68437;52.236;5.710;2023-03-23T08:32:41;10.90;99.90
18502;DHT22;68437;52.236;5.710;2023-03-23T08:35:09;10.80;99.90
18502;DHT22;68437;52.236;5.710;2023-03-23T08:37:36;10.90;99.90
18502;DHT22;68437;52.236;5.710;2023-03-23T08:40:04;10.90;99.90
18502;DHT22;68437;52.236;5.710;2023-03-23T08:42:35;11.00;99.90
18502;DHT22;68437;52.236;5.710;2023-03-23T08:45:04;11.10;99.90
18502;DHT22;68437;52.236;5.710;2023-03-23T08:47:32;11.20;99.90
18502;DHT22;68437;52.236;5.710;2023-03-23T08:49:59;11.20;99.90
18502;DHT22;68437;52.236;5.710;2023-03-23T08:52:26;11.20;99.90
18502;DHT22;68437;52.236;5.710;2023-03-23T08:54:54;11.30;99.90
18502;DHT22;68437;52.236;5.710;2023-03-23T08:57:22;11.30;99.90
18502;DHT22;68437;52.236;5.710;2023-03-23T08:59:50;11.30;99.90
18502;DHT22;68437;52.236;5.710;2023-03-23T09:02:21;11.20;99.90
18502;DHT22;68437;52.236;5.710;2023-03-23T09:04:49;11.20;99.90
18502;DHT22;68437;52.236;5.710;2023-03-23T09:07:16;11.20;99.90
18502;DHT22;68437;52.236;5.710;2023-03-23T09:09:43;11.20;99.90
18502;DHT22;68437;52.236;5.710;2023-03-23T09:12:10;11.10;99.90
18502;DHT22;68437;52.236;5.710;2023-03-23T09:14:38;11.20;99.90
18502;DHT22;68437;52.236;5.710;2023-03-23T09:17:05;11.30;99.90
18502;DHT22;68437;52.236;5.710;2023-03-23T09:19:34;11.40;99.90
18502;DHT22;68437;52.236;5.710;2023-03-23T09:22:02;11.40;99.90
18502;DHT22;68437;52.236;5.710;2023-03-23T09:24:29;11.40;99.90
18502;DHT22;68437;52.236;5.710;2023-03-23T09:26:58;11.40;99.90
18502;DHT22;68437;52.236;5.710;2023-03-23T09:29:26;11.40;99.90
18502;DHT22;68437;52.236;5.710;2023-03-23T09:31:53;11.40;99.90
18502;DHT22;68437;52.236;5.710;2023-03-23T09:34:22;11.40;99.90
18502;DHT22;68437;52.236;5.710;2023-03-23T09:36:50;11.50;99.90
18502;DHT22;68437;52.236;5.710;2023-03-23T09:39:17;11.60;99.90
18502;DHT22;68437;52.236;5.710;2023-03-23T09:42:02;11.70;99.90
18502;DHT22;68437;52.236;5.710;2023-03-23T09:44:37;12.00;99.90
18502;DHT22;68437;52.236;5.710;2023-03-23T09:47:12;12.20;99.90
18502;DHT22;68437;52.236;5.710;2023-03-23T09:49:43;12.50;99.90
18502;DHT22;68437;52.236;5.710;2023-03-23T09:52:15;12.60;99.90
18502;DHT22;68437;52.236;5.710;2023-03-23T09:54:43;12.60;99.90
18502;DHT22;68437;52.236;5.710;2023-03-23T09:57:16;12.40;99.90
18502;DHT22;68437;52.236;5.710;2023-03-23T09:59:49;12.30;99.90
18502;DHT22;68437;52.236;5.710;2023-03-23T10:02:33;12.50;99.90
18502;DHT22;68437;52.236;5.710;2023-03-23T10:05:22;12.70;99.90
18502;DHT22;68437;52.236;5.710;2023-03-23T10:07:51;12.80;99.90
18502;DHT22;68437;52.236;5.710;2023-03-23T10:10:18;12.90;99.90
18502;DHT22;68437;52.236;5.710;2023-03-23T10:12:49;12.90;99.90
18502;DHT22;68437;52.236;5.710;2023-03-23T10:15:21;12.90;99.90
18502;DHT22;68437;52.236;5.710;2023-03-23T10:17:54;13.00;99.90
18502;DHT22;68437;52.236;5.710;2023-03-23T10:20:32;13.00;99.90
18502;DHT22;68437;52.236;5.710;2023-03-23T10:23:12;13.00;99.90
18502;DHT22;68437;52.236;5.710;2023-03-23T10:25:43;13.00;99.90
18502;DHT22;68437;52.236;5.710;2023-03-23T10:28:13;13.10;99.90
18502;DHT22;68437;52.236;5.710;2023-03-23T10:30:45;13.10;99.90
18502;DHT22;68437;52.236;5.710;2023-03-23T10:33:19;13.10;99.90
18502;DHT22;68437;52.236;5.710;2023-03-23T10:35:51;13.20;99.90
18502;DHT22;68437;52.236;5.710;2023-03-23T10:38:31;12.90;99.90
18502;DHT22;68437;52.236;5.710;2023-03-23T10:41:04;13.10;99.90
18502;DHT22;68437;52.236;5.710;2023-03-23T10:43:32;13.10;99.90
18502;DHT22;68437;52.236;5.710;2023-03-23T10:46:02;13.10;99.90
18502;DHT22;68437;52.236;5.710;2023-03-23T10:48:30;13.10;99.90
18502;DHT22;68437;52.236;5.710;2023-03-23T10:51:00;13.40;99.90
18502;DHT22;68437;52.236;5.710;2023-03-23T10:53:33;13.60;99.90
18502;DHT22;68437;52.236;5.710;2023-03-23T10:56:01;13.40;99.90
18502;DHT22;68437;52.236;5.710;2023-03-23T10:58:29;13.30;99.90
18502;DHT22;68437;52.236;5.710;2023-03-23T11:00:57;13.30;99.90
18502;DHT22;68437;52.236;5.710;2023-03-23T11:03:40;13.20;99.90
18502;DHT22;68437;52.236;5.710;2023-03-23T11:06:09;13.30;99.90
18502;DHT22;68437;52.236;5.710;2023-03-23T11:08:48;13.50;99.90
18502;DHT22;68437;52.236;5.710;2023-03-23T11:11:17;13.80;99.90
18502;DHT22;68437;52.236;5.710;2023-03-23T11:13:46;14.00;99.90
18502;DHT22;68437;52.236;5.710;2023-03-23T11:16:23;14.10;99.90
18502;DHT22;68437;52.236;5.710;2023-03-23T11:18:50;14.20;99.90
18502;DHT22;68437;52.236;5.710;2023-03-23T11:21:19;14.20;99.90
18502;DHT22;68437;52.236;5.710;2023-03-23T11:23:50;14.30;99.90
18502;DHT22;68437;52.236;5.710;2023-03-23T11:26:21;14.30;99.90
18502;DHT22;68437;52.236;5.710;2023-03-23T11:28:55;14.10;99.90
18502;DHT22;68437;52.236;5.710;2023-03-23T11:31:23;13.90;99.90
18502;DHT22;68437;52.236;5.710;2023-03-23T11:33:54;13.90;99.90
18502;DHT22;68437;52.236;5.710;2023-03-23T11:36:30;13.90;99.90
18502;DHT22;68437;52.236;5.710;2023-03-23T11:38:58;14.10;99.90
18502;DHT22;68437;52.236;5.710;2023-03-23T11:41:31;14.40;99.90
18502;DHT22;68437;52.236;5.710;2023-03-23T11:44:07;14.70;99.90
18502;DHT22;68437;52.236;5.710;2023-03-23T11:46:42;14.50;99.90
18502;DHT22;68437;52.236;5.710;2023-03-23T11:49:18;14.30;99.90
18502;DHT22;68437;52.236;5.710;2023-03-23T11:51:49;14.20;99.90
18502;DHT22;68437;52.236;5.710;2023-03-23T11:54:26;14.20;99.90
18502;DHT22;68437;52.236;5.710;2023-03-23T11:56:55;14.20;99.90
18502;DHT22;68437;52.236;5.710;2023-03-23T11:59:28;14.20;99.90
18502;DHT22;68437;52.236;5.710;2023-03-23T12:02:02;14.60;99.90
18502;DHT22;68437;52.236;5.710;2023-03-23T12:04:45;14.70;99.90
18502;DHT22;68437;52.236;5.710;2023-03-23T12:07:42;14.80;99.90
18502;DHT22;68437;52.236;5.710;2023-03-23T12:10:24;14.90;99.90
18502;DHT22;68437;52.236;5.710;2023-03-23T12:12:59;15.00;99.90
18502;DHT22;68437;52.236;5.710;2023-03-23T12:15:33;14.70;99.90
18502;DHT22;68437;52.236;5.710;2023-03-23T12:18:09;14.40;99.90
18502;DHT22;68437;52.236;5.710;2023-03-23T12:20:48;14.30;99.90
18502;DHT22;68437;52.236;5.710;2023-03-23T12:23:24;14.00;99.90
18502;DHT22;68437;52.236;5.710;2023-03-23T12:29:10;13.40;99.90
18502;DHT22;68437;52.236;5.710;2023-03-23T12:31:46;13.20;99.90
18502;DHT22;68437;52.236;5.710;2023-03-23T12:34:30;13.70;99.90
18502;DHT22;68437;52.236;5.710;2023-03-23T12:37:11;14.00;99.90
18502;DHT22;68437;52.236;5.710;2023-03-23T12:39:53;14.10;99.90
18502;DHT22;68437;52.236;5.710;2023-03-23T12:42:28;14.10;99.90
18502;DHT22;68437;52.236;5.710;2023-03-23T12:45:06;14.10;99.90
18502;DHT22;68437;52.236;5.710;2023-03-23T12:47:39;14.00;99.90
18502;DHT22;68437;52.236;5.710;2023-03-23T12:50:15;14.20;99.90
18502;DHT22;68437;52.236;5.710;2023-03-23T12:52:49;14.10;99.90
18502;DHT22;68437;52.236;5.710;2023-03-23T12:55:21;13.90;99.90
18502;DHT22;68437;52.236;5.710;2023-03-23T12:57:52;13.80;99.90
18502;DHT22;68437;52.236;5.710;2023-03-23T13:00:26;13.60;99.90
18502;DHT22;68437;52.236;5.710;2023-03-23T13:03:01;13.50;99.90
18502;DHT22;68437;52.236;5.710;2023-03-23T13:05:35;13.30;99.90
18502;DHT22;68437;52.236;5.710;2023-03-23T13:08:09;13.10;99.90
18502;DHT22;68437;52.236;5.710;2023-03-23T13:10:40;13.10;99.90
18502;DHT22;68437;52.236;5.710;2023-03-23T13:13:13;13.30;99.90
18502;DHT22;68437;52.236;5.710;2023-03-23T13:15:48;13.50;99.90
18502;DHT22;68437;52.236;5.710;2023-03-23T13:18:23;13.50;99.90
18502;DHT22;68437;52.236;5.710;2023-03-23T13:20:55;13.60;99.90
18502;DHT22;68437;52.236;5.710;2023-03-23T13:23:26;13.80;99.90
18502;DHT22;68437;52.236;5.710;2023-03-23T13:25:59;13.80;99.90
18502;DHT22;68437;52.236;5.710;2023-03-23T13:28:28;13.70;99.90
18502;DHT22;68437;52.236;5.710;2023-03-23T13:31:02;13.80;99.90
18502;DHT22;68437;52.236;5.710;2023-03-23T13:33:32;14.00;99.90
18502;DHT22;68437;52.236;5.710;2023-03-23T13:36:05;14.60;99.90
18502;DHT22;68437;52.236;5.710;2023-03-23T13:38:33;14.80;99.90
18502;DHT22;68437;52.236;5.710;2023-03-23T13:41:07;14.80;99.90
18502;DHT22;68437;52.236;5.710;2023-03-23T13:43:36;14.70;99.90
18502;DHT22;68437;52.236;5.710;2023-03-23T13:46:24;14.60;99.90
18502;DHT22;68437;52.236;5.710;2023-03-23T13:49:15;14.80;99.90
18502;DHT22;68437;52.236;5.710;2023-03-23T13:51:53;15.20;99.90
18502;DHT22;68437;52.236;5.710;2023-03-23T13:54:29;15.20;99.90
18502;DHT22;68437;52.236;5.710;2023-03-23T13:56:58;15.00;99.90
18502;DHT22;68437;52.236;5.710;2023-03-23T13:59:33;14.80;99.90
18502;DHT22;68437;52.236;5.710;2023-03-23T14:02:31;14.70;99.90
18502;DHT22;68437;52.236;5.710;2023-03-23T14:05:24;14.60;99.90
18502;DHT22;68437;52.236;5.710;2023-03-23T14:07:54;14.50;99.90
18502;DHT22;68437;52.236;5.710;2023-03-23T14:10:21;14.60;99.90
18502;DHT22;68437;52.236;5.710;2023-03-23T14:12:52;14.60;99.90
18502;DHT22;68437;52.236;5.710;2023-03-23T14:15:20;14.70;99.90
18502;DHT22;68437;52.236;5.710;2023-03-23T14:17:49;14.80;99.90
18502;DHT22;68437;52.236;5.710;2023-03-23T14:20:24;14.90;99.90
18502;DHT22;68437;52.236;5.710;2023-03-23T14:22:54;14.90;99.90
18502;DHT22;68437;52.236;5.710;2023-03-23T14:25:25;14.80;99.90
18502;DHT22;68437;52.236;5.710;2023-03-23T14:27:53;14.60;99.90
18502;DHT22;68437;52.236;5.710;2023-03-23T14:30:22;14.40;99.90
18502;DHT22;68437;52.236;5.710;2023-03-23T14:32:54;14.30;99.90
18502;DHT22;68437;52.236;5.710;2023-03-23T14:35:30;14.10;99.90
18502;DHT22;68437;52.236;5.710;2023-03-23T14:37:58;13.80;99.90
18502;DHT22;68437;52.236;5.710;2023-03-23T14:40:26;13.40;99.90
18502;DHT22;68437;52.236;5.710;2023-03-23T14:42:54;13.10;99.90
18502;DHT22;68437;52.236;5.710;2023-03-23T14:45:23;12.80;99.90
18502;DHT22;68437;52.236;5.710;2023-03-23T14:47:52;12.60;99.90
18502;DHT22;68437;52.236;5.710;2023-03-23T14:50:29;12.50;99.90
18502;DHT22;68437;52.236;5.710;2023-03-23T14:52:58;12.80;99.90
18502;DHT22;68437;52.236;5.710;2023-03-23T14:55:25;13.20;99.90
18502;DHT22;68437;52.236;5.710;2023-03-23T14:57:54;13.40;99.90
18502;DHT22;68437;52.236;5.710;2023-03-23T15:00:23;13.60;99.90
18502;DHT22;68437;52.236;5.710;2023-03-23T15:02:55;13.80;99.90
18502;DHT22;68437;52.236;5.710;2023-03-23T15:05:29;14.00;99.90
18502;DHT22;68437;52.236;5.710;2023-03-23T15:08:02;14.10;99.90
18502;DHT22;68437;52.236;5.710;2023-03-23T15:10:30;14.20;99.90
18502;DHT22;68437;52.236;5.710;2023-03-23T15:12:57;14.10;99.90
18502;DHT22;68437;52.236;5.710;2023-03-23T15:15:26;14.20;99.90
18502;DHT22;68437;52.236;5.710;2023-03-23T15:17:55;14.20;99.90
18502;DHT22;68437;52.236;5.710;2023-03-23T15:20:24;14.30;99.90
18502;DHT22;68437;52.236;5.710;2023-03-23T15:22:52;14.30;99.90
18502;DHT22;68437;52.236;5.710;2023-03-23T15:25:21;14.40;99.90
18502;DHT22;68437;52.236;5.710;2023-03-23T15:27:55;14.50;99.90
18502;DHT22;68437;52.236;5.710;2023-03-23T15:30:33;14.50;99.90
18502;DHT22;68437;52.236;5.710;2023-03-23T15:33:06;14.70;99.90
18502;DHT22;68437;52.236;5.710;2023-03-23T15:35:37;14.80;99.90
18502;DHT22;68437;52.236;5.710;2023-03-23T15:38:06;14.80;99.90
18502;DHT22;68437;52.236;5.710;2023-03-23T15:40:35;14.90;99.90
18502;DHT22;68437;52.236;5.710;2023-03-23T15:43:08;14.90;99.90
18502;DHT22;68437;52.236;5.710;2023-03-23T15:45:52;14.80;99.90
18502;DHT22;68437;52.236;5.710;2023-03-23T15:48:23;14.90;99.90
18502;DHT22;68437;52.236;5.710;2023-03-23T15:50:51;14.90;99.90
18502;DHT22;68437;52.236;5.710;2023-03-23T15:53:28;14.80;99.90
18502;DHT22;68437;52.236;5.710;2023-03-23T15:55:55;14.70;99.90